Time;durP1;ratioP1;P1;durP2;ratioP2;P2;SDS_P1;SDS_P2;PMS_P1;PMS_P2;Temp;Humidity;BMP_temperature;BMP_pressure;BME280_temperature;BME280_humidity;BME280_pressure;Samples;Min_cycle;Max_cycle;Signal;HPM_P1;HPM_P2
2021/07/29 00:00:07;;;;;;;;;;;;;;;-144.99;82.78;52264.66;4981629;28;19962;-58
2021/07/29 00:02:33;;;;;;;;;;;;;;;-144.99;82.92;52354.34;4990605;28;20334;-58
2021/07/29 00:05:00;;;;;;;;;;;;;;;-144.99;82.87;52325.81;4989779;28;20361;-59
2021/07/29 00:07:26;;;;;;;;;;;;;;;-144.99;83.08;52338.03;4990415;28;20001;-59
2021/07/29 00:09:52;;;;;;;;;;;;;;;-144.99;83.42;52327.84;4989089;28;19971;-59
2021/07/29 00:12:20;;;;;;;;;;;;;;;-144.99;83.31;52338.03;4990585;28;20358;-59
2021/07/29 00:14:49;;;;;;;;;;;;;;;-144.99;83.28;52319.69;4989857;28;19986;-58
2021/07/29 00:17:28;;;;;;;;;;;;;;;-144.99;83.27;52301.34;4987350;28;19976;-58
2021/07/29 00:19:53;;;;;;;;;;;;;;;-144.99;83.27;52329.88;4989510;28;19991;-58
2021/07/29 00:22:20;;;;;;;;;;;;;;;-144.99;83.44;52305.41;4989909;28;19994;-58
2021/07/29 00:24:46;;;;;;;;;;;;;;;-144.99;83.32;52313.56;4990078;28;19994;-58
2021/07/29 00:27:12;;;;;;;;;;;;;;;-144.99;83.65;52338.03;4989132;28;19976;-59
2021/07/29 00:29:40;;;;;;;;;;;;;;;-144.99;84.32;52325.81;4989495;28;20485;-58
2021/07/29 00:32:07;;;;;;;;;;;;;;;-144.99;84.52;52313.56;4990302;28;20069;-58
2021/07/29 00:34:33;;;;;;;;;;;;;;;-144.99;84.84;52325.81;4989197;28;19972;-58
2021/07/29 00:36:59;;;;;;;;;;;;;;;-144.99;84.97;52313.56;4989041;28;19973;-58
2021/07/29 00:39:26;;;;;;;;;;;;;;;-144.99;85.47;52309.50;4989559;28;20456;-58
2021/07/29 00:41:52;;;;;;;;;;;;;;;-144.99;86.10;52313.56;4989722;28;20436;-58
2021/07/29 00:44:18;;;;;;;;;;;;;;;-144.99;86.16;52329.88;4989762;28;20243;-58
2021/07/29 00:46:46;;;;;;;;;;;;;;;-144.99;86.32;52317.66;4989328;28;20000;-58
2021/07/29 00:49:13;;;;;;;;;;;;;;;-144.99;86.63;52325.81;4981274;28;19987;-58
2021/07/29 00:51:39;;;;;;;;;;;;;;;-144.99;86.56;52313.56;4989416;28;20042;-58
2021/07/29 00:54:06;;;;;;;;;;;;;;;-144.99;86.89;52293.19;4989755;28;19989;-60
2021/07/29 00:56:35;;;;;;;;;;;;;;;-144.99;86.74;52311.53;4989873;28;20034;-60
2021/07/29 00:59:01;;;;;;;;;;;;;;;-144.99;86.82;52354.34;4988800;28;20153;-59
2021/07/29 01:01:28;;;;;;;;;;;;;;;-144.99;86.69;52342.09;4989217;28;19995;-56
2021/07/29 01:03:55;;;;;;;;;;;;;;;-144.99;87.28;52309.50;4989845;28;20062;-57
2021/07/29 01:06:22;;;;;;;;;;;;;;;-144.99;87.19;52333.94;4989339;28;19994;-58
2021/07/29 01:09:02;;;;;;;;;;;;;;;-144.99;87.49;52338.03;4983758;28;19983;-56
2021/07/29 01:11:28;;;;;;;;;;;;;;;-144.99;87.41;52329.88;4988520;28;20085;-56
2021/07/29 01:13:55;;;;;;;;;;;;;;;-144.99;87.54;52342.09;4989290;28;19986;-56
2021/07/29 01:16:21;;;;;;;;;;;;;;;-144.99;87.60;52329.88;4989502;28;19983;-56
2021/07/29 01:18:47;;;;;;;;;;;;;;;-144.99;87.28;52338.03;4988091;28;19979;-57
2021/07/29 01:21:15;;;;;;;;;;;;;;;-144.99;87.25;52348.22;4989303;28;19991;-57
2021/07/29 01:23:41;;;;;;;;;;;;;;;-144.99;86.79;52293.19;4990274;28;20006;-56
2021/07/29 01:26:08;;;;;;;;;;;;;;;-144.99;86.58;52319.69;4989095;28;19985;-57
2021/07/29 01:28:34;;;;;;;;;;;;;;;-144.99;85.89;52319.69;4989060;28;19975;-57
2021/07/29 01:31:00;;;;;;;;;;;;;;;-144.99;85.63;52309.50;4986691;28;19999;-57
2021/07/29 01:33:27;;;;;;;;;;;;;;;-144.99;85.35;52305.41;4987433;28;19976;-57
2021/07/29 01:35:53;;;;;;;;;;;;;;;-144.99;84.94;52317.66;4988790;28;19983;-58
2021/07/29 01:38:21;;;;;;;;;;;;;;;-144.99;84.71;52354.34;4989284;28;19972;-59
2021/07/29 01:40:47;;;;;;;;;;;;;;;-144.99;84.56;52289.13;4978669;28;19992;-58
2021/07/29 01:43:14;;;;;;;;;;;;;;;-144.99;84.17;52325.81;4989176;28;19983;-59
2021/07/29 01:45:40;;;;;;;;;;;;;;;-144.99;83.79;52331.91;4989789;28;19982;-59
2021/07/29 01:48:06;;;;;;;;;;;;;;;-144.99;83.22;52329.88;4988990;28;19991;-59
2021/07/29 01:50:33;;;;;;;;;;;;;;;-144.99;83.23;52344.16;4988160;28;19994;-59
2021/07/29 01:52:59;;;;;;;;;;;;;;;-144.99;83.03;52317.66;4989314;28;20029;-58
2021/07/29 01:55:26;;;;;;;;;;;;;;;-144.99;82.69;52293.19;4989778;28;20433;-56
2021/07/29 01:57:53;;;;;;;;;;;;;;;-144.99;83.11;52333.94;4992258;28;20456;-57
2021/07/29 02:00:19;;;;;;;;;;;;;;;-144.99;83.01;52325.81;4990284;28;20001;-57
2021/07/29 02:02:46;;;;;;;;;;;;;;;-144.99;83.03;52336.00;4991473;28;19980;-60
2021/07/29 02:05:12;;;;;;;;;;;;;;;-144.99;82.94;52325.81;4992829;28;19976;-59
2021/07/29 02:07:38;;;;;;;;;;;;;;;-144.99;82.94;52348.22;4992895;28;20066;-60
2021/07/29 02:10:05;;;;;;;;;;;;;;;-144.99;82.84;52370.63;4992328;28;20010;-59
2021/07/29 02:12:34;;;;;;;;;;;;;;;-144.99;82.75;52333.94;5018166;23;19994;-61
2021/07/29 02:15:00;;;;;;;;;;;;;;;-144.99;82.64;52342.09;5006180;28;20131;-58
2021/07/29 02:17:26;;;;;;;;;;;;;;;-144.99;82.50;52301.34;5009736;28;19976;-59
2021/07/29 02:19:53;;;;;;;;;;;;;;;-144.99;82.35;52356.38;5013477;28;19977;-59
2021/07/29 02:22:19;;;;;;;;;;;;;;;-144.99;82.17;52333.94;5010337;28;19974;-59
2021/07/29 02:24:45;;;;;;;;;;;;;;;-144.99;81.97;52321.72;5013144;28;19987;-59
2021/07/29 02:27:12;;;;;;;;;;;;;;;-144.99;81.65;52317.66;5012942;28;19987;-59
2021/07/29 02:29:39;;;;;;;;;;;;;;;-144.99;81.71;52354.34;5012607;28;19986;-61
2021/07/29 02:32:06;;;;;;;;;;;;;;;-144.99;81.63;52346.19;5008538;28;19976;-63
2021/07/29 02:34:32;;;;;;;;;;;;;;;-144.99;81.77;52307.47;5012524;28;19990;-61
2021/07/29 02:36:59;;;;;;;;;;;;;;;-144.99;81.52;52313.56;5012791;28;19980;-62
2021/07/29 02:39:25;;;;;;;;;;;;;;;-144.99;81.27;52321.72;5012469;28;20379;-62
2021/07/29 02:41:51;;;;;;;;;;;;;;;-144.99;80.98;52305.41;5011191;28;20003;-62
2021/07/29 02:44:18;;;;;;;;;;;;;;;-144.99;80.90;52350.25;5011907;28;20430;-62
2021/07/29 02:46:46;;;;;;;;;;;;;;;-144.99;80.73;52370.63;5012304;28;19980;-62
2021/07/29 02:49:12;;;;;;;;;;;;;;;-144.99;80.81;52333.94;5012021;28;19979;-62
2021/07/29 02:51:39;;;;;;;;;;;;;;;-144.99;81.11;52325.81;5011157;28;20531;-62
2021/07/29 02:54:05;;;;;;;;;;;;;;;-144.99;81.13;52338.03;5006393;28;19991;-62
2021/07/29 02:56:31;;;;;;;;;;;;;;;-144.99;81.40;52325.81;5012554;28;20445;-64
2021/07/29 02:58:58;;;;;;;;;;;;;;;-144.99;81.35;52309.50;5011350;28;19972;-64
2021/07/29 03:01:25;;;;;;;;;;;;;;;-144.99;81.34;52342.09;5012269;28;20454;-64
2021/07/29 03:03:53;;;;;;;;;;;;;;;-144.99;81.17;52342.09;5010205;28;20019;-63
2021/07/29 03:06:19;;;;;;;;;;;;;;;-144.99;80.96;52329.88;5011715;28;19976;-59
2021/07/29 03:08:46;;;;;;;;;;;;;;;-144.99;81.10;52333.94;5010011;28;19979;-60
2021/07/29 03:11:12;;;;;;;;;;;;;;;-144.99;81.12;52350.25;5012101;28;20015;-59
2021/07/29 03:13:38;;;;;;;;;;;;;;;-144.99;80.98;52354.34;5006333;28;20469;-60
2021/07/29 03:16:05;;;;;;;;;;;;;;;-144.99;80.89;52333.94;5010128;28;20406;-60
2021/07/29 03:18:31;;;;;;;;;;;;;;;-144.99;80.85;52297.25;5005510;28;19975;-60
2021/07/29 03:20:59;;;;;;;;;;;;;;;-144.99;80.87;52325.81;5010928;28;19999;-60
2021/07/29 03:23:26;;;;;;;;;;;;;;;-144.99;80.56;52291.16;5008864;28;20429;-59
2021/07/29 03:25:54;;;;;;;;;;;;;;;-144.99;80.35;52309.50;5012151;28;19975;-61
2021/07/29 03:28:21;;;;;;;;;;;;;;;-144.99;80.24;52327.84;5003956;28;20345;-60
2021/07/29 03:30:47;;;;;;;;;;;;;;;-144.99;79.97;52313.56;5011691;28;20014;-60
2021/07/29 03:33:14;;;;;;;;;;;;;;;-144.99;79.94;52346.19;5010676;28;20058;-62
2021/07/29 03:35:41;;;;;;;;;;;;;;;-144.99;80.00;52346.19;5010854;28;19983;-62
2021/07/29 03:38:09;;;;;;;;;;;;;;;-144.99;79.48;52313.56;5003484;28;19982;-62
2021/07/29 03:40:36;;;;;;;;;;;;;;;-144.99;79.10;52311.53;5010716;28;20586;-62
2021/07/29 03:43:03;;;;;;;;;;;;;;;-144.99;79.21;52313.56;5011853;28;19979;-62
2021/07/29 03:45:29;;;;;;;;;;;;;;;-144.99;79.24;52305.41;5003475;28;19979;-62
2021/07/29 03:47:56;;;;;;;;;;;;;;;-144.99;79.49;52321.72;5000944;28;19972;-62
2021/07/29 03:50:22;;;;;;;;;;;;;;;-144.99;79.81;52321.72;5010057;28;20007;-62
2021/07/29 03:52:49;;;;;;;;;;;;;;;-144.99;79.76;52329.88;5011794;28;19982;-62
2021/07/29 03:55:16;;;;;;;;;;;;;;;-144.99;80.25;52325.81;5011478;28;19971;-60
2021/07/29 03:57:43;;;;;;;;;;;;;;;-144.99;80.52;52358.41;5005780;28;19977;-61
2021/07/29 04:00:09;;;;;;;;;;;;;;;-144.99;80.82;52354.34;5009156;28;19986;-61
2021/07/29 04:02:36;;;;;;;;;;;;;;;-144.99;80.97;52329.88;5011044;28;19997;-61
2021/07/29 04:05:03;;;;;;;;;;;;;;;-144.99;80.54;52352.28;5010922;28;19999;-61
2021/07/29 04:07:29;;;;;;;;;;;;;;;-144.99;80.22;52297.25;5009973;28;19976;-58
2021/07/29 04:09:56;;;;;;;;;;;;;;;-144.99;80.06;52338.03;5004057;28;19995;-58
2021/07/29 04:12:23;;;;;;;;;;;;;;;-144.99;79.67;52325.81;5011501;28;19985;-58
2021/07/29 04:14:50;;;;;;;;;;;;;;;-144.99;79.74;52305.41;5010659;28;19975;-59
2021/07/29 04:17:17;;;;;;;;;;;;;;;-144.99;79.25;52338.03;5008812;28;19929;-63
2021/07/29 04:19:43;;;;;;;;;;;;;;;-144.99;79.65;52323.75;5002394;28;20074;-61
2021/07/29 04:22:10;;;;;;;;;;;;;;;-144.99;79.57;52321.72;5009754;28;19987;-60
2021/07/29 04:24:36;;;;;;;;;;;;;;;-144.99;79.47;52331.91;5011077;28;19974;-61
2021/07/29 04:27:03;;;;;;;;;;;;;;;-144.99;79.42;52305.41;5010892;28;19980;-60
2021/07/29 04:29:32;;;;;;;;;;;;;;;-144.99;79.44;52319.69;5005312;28;19975;-61
2021/07/29 04:31:59;;;;;;;;;;;;;;;-144.99;79.36;52325.81;5006986;28;20367;-62
2021/07/29 04:34:25;;;;;;;;;;;;;;;-144.99;79.53;52305.41;5009954;28;19985;-62
2021/07/29 04:36:53;;;;;;;;;;;;;;;-144.99;79.47;52329.88;5009829;28;20416;-62
2021/07/29 04:39:19;;;;;;;;;;;;;;;-144.99;79.34;52317.66;5007077;28;19975;-62
2021/07/29 04:41:46;;;;;;;;;;;;;;;-144.99;79.29;52287.06;5009260;28;19995;-62
2021/07/29 04:44:13;;;;;;;;;;;;;;;-144.99;78.77;52340.06;5002307;28;20003;-60
2021/07/29 04:46:41;;;;;;;;;;;;;;;-144.99;78.78;52301.34;5010249;28;20003;-61
2021/07/29 04:49:08;;;;;;;;;;;;;;;-144.99;78.68;52293.19;5007599;28;19975;-60
2021/07/29 04:51:35;;;;;;;;;;;;;;;-144.99;78.13;52295.22;5009742;28;19926;-61
2021/07/29 04:54:01;;;;;;;;;;;;;;;-144.99;78.36;52333.94;5010682;28;19975;-61
2021/07/29 04:56:28;;;;;;;;;;;;;;;-144.99;78.17;52289.13;5010417;28;19979;-61
2021/07/29 04:58:54;;;;;;;;;;;;;;;-144.99;78.01;52309.50;4997489;28;19979;-59
2021/07/29 05:01:20;;;;;;;;;;;;;;;-144.99;77.92;52313.56;5006268;28;20003;-61
2021/07/29 05:03:48;;;;;;;;;;;;;;;-144.99;77.65;52297.25;5003957;28;19925;-61
2021/07/29 05:06:15;;;;;;;;;;;;;;;-144.99;77.37;52268.72;5009778;28;19982;-60
2021/07/29 05:08:43;;;;;;;;;;;;;;;-144.99;77.10;52317.66;5004557;28;20338;-60
2021/07/29 05:11:09;;;;;;;;;;;;;;;-144.99;77.46;52276.88;5007906;28;20068;-61
2021/07/29 05:13:36;;;;;;;;;;;;;;;-144.99;76.96;52297.25;5010398;28;20002;-60
2021/07/29 05:16:03;;;;;;;;;;;;;;;-144.99;76.63;52313.56;5010677;28;20065;-61
2021/07/29 05:18:30;;;;;;;;;;;;;;;-144.99;76.37;52325.81;5005818;28;19976;-62
2021/07/29 05:21:01;;;;;;;;;;;;;;;-144.99;75.79;52291.16;5008072;28;20010;-62
2021/07/29 05:23:27;;;;;;;;;;;;;;;-144.99;75.83;52276.88;4662198;28;10001494;-61
2021/07/29 05:25:54;;;;;;;;;;;;;;;-144.99;75.71;52329.88;4661191;28;10000573;-61
2021/07/29 05:28:20;;;;;;;;;;;;;;;-144.99;74.60;52285.03;5004994;28;20383;-59
2021/07/29 05:30:46;;;;;;;;;;;;;;;-144.99;74.96;52268.72;5001386;28;20525;-59
2021/07/29 05:33:13;;;;;;;;;;;;;;;-144.99;74.46;52336.00;5010949;28;19976;-59
2021/07/29 05:35:39;;;;;;;;;;;;;;;-144.99;74.33;52313.56;5011653;28;20301;-60
2021/07/29 05:38:07;;;;;;;;;;;;;;;-144.99;74.83;52313.56;5011734;28;19970;-61
2021/07/29 05:40:33;;;;;;;;;;;;;;;-144.99;74.32;52285.03;5003509;28;19987;-61
2021/07/29 05:42:59;;;;;;;;;;;;;;;-144.99;74.29;52283.00;5011179;28;19992;-60
2021/07/29 05:45:28;;;;;;;;;;;;;;;-144.99;74.07;52291.16;5011778;28;20019;-60
2021/07/29 05:47:54;;;;;;;;;;;;;;;-144.99;74.00;52297.25;5011050;28;19987;-60
2021/07/29 05:50:21;;;;;;;;;;;;;;;-144.99;74.11;52333.94;5005360;28;20001;-59
2021/07/29 05:52:48;;;;;;;;;;;;;;;-144.99;73.68;52315.59;5011466;28;19979;-59
2021/07/29 05:55:16;;;;;;;;;;;;;;;-144.99;73.09;52301.34;5011257;28;20383;-62
2021/07/29 05:57:42;;;;;;;;;;;;;;;-144.99;73.26;52338.03;5006758;28;19979;-60
2021/07/29 06:00:09;;;;;;;;;;;;;;;-144.99;72.33;52313.56;5003990;28;19995;-60
2021/07/29 06:02:35;;;;;;;;;;;;;;;-144.99;72.67;52301.34;5009902;28;19992;-61
2021/07/29 06:05:02;;;;;;;;;;;;;;;-144.99;72.01;52313.56;5009565;28;20022;-61
2021/07/29 06:07:29;;;;;;;;;;;;;;;-144.99;71.28;52317.66;5010493;28;20074;-60
2021/07/29 06:09:55;;;;;;;;;;;;;;;-144.99;71.17;52297.25;5003151;28;19994;-60
2021/07/29 06:12:27;;;;;;;;;;;;;;;-144.99;70.84;52301.34;5010663;28;19983;-61
2021/07/29 06:14:53;;;;;;;;;;;;;;;-144.99;70.96;52321.72;5010718;28;20070;-61
2021/07/29 06:17:23;;;;;;;;;;;;;;;-144.99;70.63;52319.69;5010255;28;20442;-60
2021/07/29 06:19:49;;;;;;;;;;;;;;;-144.99;69.97;52297.25;5002400;28;19971;-61
2021/07/29 06:22:16;;;;;;;;;;;;;;;-144.99;69.22;52319.69;5007641;28;19994;-60
2021/07/29 06:24:42;;;;;;;;;;;;;;;-144.99;69.43;52293.19;5011304;28;19987;-60
2021/07/29 06:27:08;;;;;;;;;;;;;;;-144.99;69.37;52303.38;5011133;28;19987;-60
2021/07/29 06:29:36;;;;;;;;;;;;;;;-144.99;68.88;52295.22;5005703;28;20003;-61
2021/07/29 06:32:02;;;;;;;;;;;;;;;-144.99;68.43;52305.41;5006527;28;20476;-62
2021/07/29 06:34:29;;;;;;;;;;;;;;;-144.99;68.48;52264.66;5009159;28;20443;-63
2021/07/29 06:36:55;;;;;;;;;;;;;;;-144.99;67.82;52244.28;5010489;28;19980;-60
2021/07/29 06:39:21;;;;;;;;;;;;;;;-144.99;68.90;52293.19;5008276;28;20048;-60
2021/07/29 06:41:48;;;;;;;;;;;;;;;-144.99;68.35;52268.72;5009290;28;19995;-61
2021/07/29 06:44:15;;;;;;;;;;;;;;;-144.99;67.98;52301.34;5010231;28;20356;-62
2021/07/29 06:46:43;;;;;;;;;;;;;;;-144.99;67.03;52301.34;5010141;28;19979;-61
2021/07/29 06:49:09;;;;;;;;;;;;;;;-144.99;67.48;52309.50;5009827;28;19984;-60
2021/07/29 06:51:36;;;;;;;;;;;;;;;-144.99;67.63;52325.81;5000848;28;19990;-60
2021/07/29 06:54:04;;;;;;;;;;;;;;;-144.99;67.62;52293.19;5009585;28;19964;-60
2021/07/29 06:56:30;;;;;;;;;;;;;;;-144.99;67.23;52325.81;5009836;28;19988;-60
2021/07/29 06:58:56;;;;;;;;;;;;;;;-144.99;67.32;52289.13;5005141;28;19966;-59
2021/07/29 07:01:23;;;;;;;;;;;;;;;-144.99;66.97;52268.72;5002291;28;19987;-59
2021/07/29 07:03:50;;;;;;;;;;;;;;;-144.99;66.70;52287.06;5009414;28;19984;-60
2021/07/29 07:06:17;;;;;;;;;;;;;;;-144.99;67.43;52293.19;5009743;28;19986;-60
2021/07/29 07:08:43;;;;;;;;;;;;;;;-144.99;67.93;52301.34;5009668;28;20462;-60
2021/07/29 07:11:14;;;;;;;;;;;;;;;-144.99;66.87;52301.34;5007260;28;19997;-60
2021/07/29 07:13:43;;;;;;;;;;;;;;;-144.99;67.29;52317.66;5002511;28;19933;-60
2021/07/29 07:16:10;;;;;;;;;;;;;;;-144.99;67.29;52260.56;5009018;28;20005;-60
2021/07/29 07:18:36;;;;;;;;;;;;;;;-144.99;66.07;52289.13;5009445;28;19981;-60
2021/07/29 07:21:07;;;;;;;;;;;;;;;-144.99;66.08;52280.97;5007267;28;20477;-61
2021/07/29 07:23:34;;;;;;;;;;;;;;;-144.99;65.07;52321.72;5007363;28;19997;-60
2021/07/29 07:26:00;;;;;;;;;;;;;;;-144.99;64.48;52252.44;5009271;28;19984;-58
2021/07/29 07:28:26;;;;;;;;;;;;;;;-144.99;64.78;52283.00;5008927;28;20456;-59
2021/07/29 07:30:53;;;;;;;;;;;;;;;-144.99;64.07;52291.16;5008153;28;19994;-61
2021/07/29 07:33:19;;;;;;;;;;;;;;;-144.99;62.77;52293.19;5003149;28;20404;-60
2021/07/29 07:35:45;;;;;;;;;;;;;;;-144.99;62.15;52272.81;5008887;28;19950;-59
2021/07/29 07:38:13;;;;;;;;;;;;;;;-144.99;62.78;52199.44;5008897;28;19954;-60
2021/07/29 07:40:39;;;;;;;;;;;;;;;-144.99;63.06;52268.72;5007539;28;20430;-60
2021/07/29 07:43:06;;;;;;;;;;;;;;;-144.99;61.77;52256.50;5006841;28;19972;-60
2021/07/29 07:45:33;;;;;;;;;;;;;;;-144.99;60.37;52227.97;5009064;28;20096;-60
2021/07/29 07:47:59;;;;;;;;;;;;;;;-144.99;60.56;52268.72;5009005;28;20000;-60
2021/07/29 07:50:26;;;;;;;;;;;;;;;-144.99;60.49;52248.34;5008376;28;19987;-60
2021/07/29 07:52:52;;;;;;;;;;;;;;;-144.99;59.69;52248.34;5003138;28;19987;-60
2021/07/29 07:55:20;;;;;;;;;;;;;;;-144.99;59.19;52252.44;5000581;28;19957;-59
2021/07/29 07:57:46;;;;;;;;;;;;;;;-144.99;59.61;52276.88;5008397;28;20406;-59
2021/07/29 08:00:14;;;;;;;;;;;;;;;-144.99;59.42;52295.22;5008185;28;20382;-60
2021/07/29 08:02:40;;;;;;;;;;;;;;;-144.99;59.47;52291.16;5005316;28;19960;-59
2021/07/29 08:05:07;;;;;;;;;;;;;;;-144.99;59.89;52248.34;5008115;28;19953;-60
2021/07/29 08:07:34;;;;;;;;;;;;;;;-144.99;58.80;52256.50;5008537;28;20322;-59
2021/07/29 08:10:00;;;;;;;;;;;;;;;-144.99;58.40;52297.25;5006418;28;19966;-59
2021/07/29 08:12:28;;;;;;;;;;;;;;;-144.99;58.07;52252.44;5024528;23;19986;-57
2021/07/29 08:14:54;;;;;;;;;;;;;;;-144.99;58.36;52248.34;5001877;28;19939;-57
2021/07/29 08:17:20;;;;;;;;;;;;;;;-144.99;56.94;52272.81;5003608;28;19950;-58
2021/07/29 08:19:47;;;;;;;;;;;;;;;-144.99;57.48;52234.09;5005030;28;19975;-60
2021/07/29 08:22:13;;;;;;;;;;;;;;;-144.99;57.58;52285.03;5001478;28;19976;-58
2021/07/29 08:24:39;;;;;;;;;;;;;;;-144.99;56.63;52264.66;4999900;28;19959;-57
2021/07/29 08:27:06;;;;;;;;;;;;;;;-144.99;55.80;52256.50;5003437;28;19951;-57
2021/07/29 08:29:35;;;;;;;;;;;;;;;-144.99;54.93;52252.44;5005771;28;19963;-57
2021/07/29 08:32:02;;;;;;;;;;;;;;;-144.99;54.79;52227.97;5003214;28;19996;-58
2021/07/29 08:34:28;;;;;;;;;;;;;;;-144.99;55.22;52250.38;5007176;28;19978;-58
2021/07/29 08:36:55;;;;;;;;;;;;;;;-144.99;54.99;52256.50;5005914;28;19968;-57
2021/07/29 08:39:21;;;;;;;;;;;;;;;-144.99;55.45;52236.13;5003736;28;20068;-57
2021/07/29 08:41:48;;;;;;;;;;;;;;;-144.99;55.41;52276.88;5003980;28;19926;-58
2021/07/29 08:44:14;;;;;;;;;;;;;;;-144.99;56.13;52252.44;5007226;28;19960;-60
2021/07/29 08:46:44;;;;;;;;;;;;;;;-144.99;54.45;52276.88;5007255;28;19957;-63
2021/07/29 08:49:11;;;;;;;;;;;;;;;-144.99;52.75;52215.75;5004875;28;19945;-63
2021/07/29 08:51:38;;;;;;;;;;;;;;;-144.99;53.27;52232.03;5005095;28;20001;-61
2021/07/29 08:54:08;;;;;;;;;;;;;;;-144.99;53.02;52250.38;5002315;28;19955;-62
2021/07/29 08:56:34;;;;;;;;;;;;;;;-144.99;53.71;52213.69;5004843;28;19955;-62
2021/07/29 08:59:01;;;;;;;;;;;;;;;-144.99;53.03;52227.97;5002035;28;19964;-61
2021/07/29 09:01:40;;;;;;;;;;;;;;;-144.99;51.92;52250.38;5004525;28;20203;-63
2021/07/29 09:04:13;;;;;;;;;;;;;;;-144.99;51.72;52223.88;5002770;28;19961;-63
2021/07/29 09:06:56;;;;;;;;;;;;;;;-144.99;51.61;52213.69;5000188;28;19973;-63
2021/07/29 09:09:35;;;;;;;;;;;;;;;-144.99;51.41;52252.44;5002167;28;19947;-62
2021/07/29 09:12:13;;;;;;;;;;;;;;;-144.99;50.57;52219.81;5005188;28;19933;-63
2021/07/29 09:14:39;;;;;;;;;;;;;;;-144.99;50.81;52256.50;5006630;28;19958;-62
2021/07/29 09:17:07;;;;;;;;;;;;;;;-144.99;51.29;52264.66;5007346;28;19944;-63
2021/07/29 09:19:35;;;;;;;;;;;;;;;-144.99;49.83;52223.88;5004735;28;19948;-63
2021/07/29 09:22:05;;;;;;;;;;;;;;;-144.99;48.90;52260.56;5000469;28;20579;-59
2021/07/29 09:24:32;;;;;;;;;;;;;;;-144.99;49.60;52250.38;5006637;28;20380;-59
2021/07/29 09:26:59;;;;;;;;;;;;;;;-144.99;49.33;52260.56;4999785;28;20406;-59
2021/07/29 09:29:26;;;;;;;;;;;;;;;-144.99;49.37;52203.50;5000835;28;19945;-60
2021/07/29 09:32:03;;;;;;;;;;;;;;;-144.99;49.90;52254.47;5007117;28;20004;-60
2021/07/29 09:34:43;;;;;;;;;;;;;;;-144.99;49.85;52264.66;4997486;28;20452;-60
2021/07/29 09:37:09;;;;;;;;;;;;;;;-144.99;49.62;52256.50;5003580;28;19963;-61
2021/07/29 09:39:36;;;;;;;;;;;;;;;-144.99;49.87;52268.72;5007146;28;20001;-61
2021/07/29 09:42:14;;;;;;;;;;;;;;;-144.99;49.90;52227.97;5007102;28;19969;-60
2021/07/29 09:44:41;;;;;;;;;;;;;;;-144.99;49.83;52240.19;5007531;28;19960;-60
2021/07/29 09:47:08;;;;;;;;;;;;;;;-144.99;48.71;52248.34;5006685;28;20159;-60
2021/07/29 09:49:35;;;;;;;;;;;;;;;-144.99;48.61;52252.44;5003893;28;20350;-58
2021/07/29 09:52:03;;;;;;;;;;;;;;;-144.99;48.35;52260.56;5007222;28;19975;-61
2021/07/29 09:54:29;;;;;;;;;;;;;;;-144.99;48.97;52250.38;5007086;28;19951;-60
2021/07/29 09:56:55;;;;;;;;;;;;;;;-144.99;48.50;52219.81;5006329;28;20427;-60
2021/07/29 09:59:22;;;;;;;;;;;;;;;-144.99;48.51;52219.81;5001670;28;19958;-59
2021/07/29 10:01:49;;;;;;;;;;;;;;;-144.99;48.01;52197.41;5006254;28;19929;-59
2021/07/29 10:04:17;;;;;;;;;;;;;;;-144.99;48.57;52240.19;5005069;28;19982;-60
2021/07/29 10:06:43;;;;;;;;;;;;;;;-144.99;48.96;52185.16;5005263;28;19946;-60
2021/07/29 10:09:13;;;;;;;;;;;;;;;-144.99;48.41;52227.97;4998491;28;19998;-61
2021/07/29 10:11:42;;;;;;;;;;;;;;;-144.99;48.11;52203.50;5006358;28;19961;-59
2021/07/29 10:14:10;;;;;;;;;;;;;;;-144.99;48.76;52252.44;5003125;28;19925;-60
2021/07/29 10:16:46;;;;;;;;;;;;;;;-144.99;48.44;52168.84;5005477;28;19947;-59
2021/07/29 10:19:12;;;;;;;;;;;;;;;-144.99;48.97;52197.41;5006153;28;20263;-59
2021/07/29 10:21:40;;;;;;;;;;;;;;;-144.99;48.64;52199.44;5005957;28;20026;-61
2021/07/29 10:24:19;;;;;;;;;;;;;;;-144.99;48.70;52187.19;4997868;28;20271;-59
2021/07/29 10:27:04;;;;;;;;;;;;;;;-144.99;48.57;52244.28;5002201;28;20246;-59
2021/07/29 10:29:32;;;;;;;;;;;;;;;-144.99;49.49;52280.97;5007515;28;19945;-60
2021/07/29 10:32:02;;;;;;;;;;;;;;;-144.99;49.80;52179.06;5008951;28;19933;-59
2021/07/29 10:34:30;;;;;;;;;;;;;;;-144.99;49.15;52170.91;5005492;28;19930;-59
2021/07/29 10:36:57;;;;;;;;;;;;;;;-144.99;48.82;52164.78;5004117;28;19944;-60
2021/07/29 10:39:23;;;;;;;;;;;;;;;-144.99;48.54;52223.88;5007282;28;19929;-58
2021/07/29 10:41:51;;;;;;;;;;;;;;;-144.99;48.44;52234.09;4998221;28;19983;-58
2021/07/29 10:44:36;;;;;;;;;;;;;;;-144.99;49.35;52236.13;5002605;28;19974;-59
2021/07/29 10:47:05;;;;;;;;;;;;;;;-144.99;48.97;52146.44;5004984;28;19925;-61
2021/07/29 10:49:50;;;;;;;;;;;;;;;-144.99;47.75;52211.66;5000822;28;20362;-59
2021/07/29 10:52:17;;;;;;;;;;;;;;;-144.99;47.55;52236.13;5007468;28;20000;-59
2021/07/29 10:54:44;;;;;;;;;;;;;;;-144.99;47.90;52248.34;5007625;28;19945;-60
2021/07/29 10:57:11;;;;;;;;;;;;;;;-144.99;48.72;52240.19;4999829;28;19988;-60
2021/07/29 10:59:38;;;;;;;;;;;;;;;-144.99;48.33;52244.28;5007304;28;20432;-58
2021/07/29 11:02:08;;;;;;;;;;;;;;;-144.99;49.23;52203.50;5008679;28;19941;-66
2021/07/29 11:04:50;;;;;;;;;;;;;;;-144.99;49.42;52223.88;5006301;28;20039;-65
2021/07/29 11:07:16;;;;;;;;;;;;;;;-144.99;49.47;52244.28;5004349;28;19940;-66
2021/07/29 11:09:42;;;;;;;;;;;;;;;-144.99;49.83;52268.72;5002407;28;19943;-66
2021/07/29 11:12:13;;;;;;;;;;;;;;;-144.99;49.85;52280.97;5008737;28;20486;-66
2021/07/29 11:14:39;;;;;;;;;;;;;;;-144.99;50.36;52240.19;5008394;28;19933;-66
2021/07/29 11:17:07;;;;;;;;;;;;;;;-144.99;49.73;52115.88;5008928;28;19962;-66
2021/07/29 11:19:43;;;;;;;;;;;;;;;-144.99;49.20;52134.22;5008136;28;19971;-67
2021/07/29 11:22:09;;;;;;;;;;;;;;;-144.99;48.69;52142.38;5008464;28;20313;-65
2021/07/29 11:24:36;;;;;;;;;;;;;;;-144.99;48.35;52126.06;5006948;28;19927;-67
2021/07/29 11:27:04;;;;;;;;;;;;;;;-144.99;48.40;52132.19;5008952;28;20023;-67
2021/07/29 11:29:30;;;;;;;;;;;;;;;-144.99;47.95;52219.81;5008257;28;19964;-68
2021/07/29 11:31:57;;;;;;;;;;;;;;;-144.99;47.76;52199.44;5007142;28;19925;-69
2021/07/29 11:34:30;;;;;;;;;;;;;;;-144.99;47.90;52146.44;4996038;28;19937;-66
2021/07/29 11:36:57;;;;;;;;;;;;;;;-144.99;47.63;52156.63;5000643;28;19925;-66
2021/07/29 11:39:23;;;;;;;;;;;;;;;-144.99;47.53;52121.97;5006674;28;20002;-68
2021/07/29 11:41:51;;;;;;;;;;;;;;;-144.99;48.00;52105.69;5006707;28;19929;-67
2021/07/29 11:44:17;;;;;;;;;;;;;;;-144.99;47.15;52191.28;5008066;28;20392;-67
2021/07/29 11:46:51;;;;;;;;;;;;;;;-144.99;47.55;52248.34;5008384;28;19967;-67
2021/07/29 11:49:18;;;;;;;;;;;;;;;-144.99;46.67;52244.28;5007816;28;19933;-67
2021/07/29 11:54:38;;;;;;;;;;;;;;;-144.99;46.83;52240.19;5132361;27;19915;-64
2021/07/29 11:57:06;;;;;;;;;;;;;;;-144.99;46.88;52191.28;5144277;27;20301;-66
2021/07/29 11:59:35;;;;;;;;;;;;;;;-144.99;46.82;52199.44;5144787;27;21238;-64
2021/07/29 12:02:03;;;;;;;;;;;;;;;-144.99;46.71;52252.44;5124690;27;20007;-64
2021/07/29 12:04:30;;;;;;;;;;;;;;;-144.99;46.28;52195.34;5115855;28;19939;-64
2021/07/29 12:06:57;;;;;;;;;;;;;;;-144.99;46.83;52199.44;5120054;28;19930;-66
2021/07/29 12:09:24;;;;;;;;;;;;;;;-144.99;46.88;52232.03;5124427;27;19927;-65
2021/07/29 12:11:53;;;;;;;;;;;;;;;-144.99;46.82;52138.28;5123571;27;19924;-65
2021/07/29 12:14:21;;;;;;;;;;;;;;;-144.99;46.87;52207.59;5123478;28;19963;-65
2021/07/29 12:16:49;;;;;;;;;;;;;;;-144.99;46.83;52236.13;5123902;28;20381;-66
2021/07/29 12:19:16;;;;;;;;;;;;;;;-144.99;47.51;52276.88;5123775;27;20471;-65
2021/07/29 12:21:42;;;;;;;;;;;;;;;-144.99;48.73;52280.97;5121417;27;19983;-66
2021/07/29 12:24:08;;;;;;;;;;;;;;;-144.99;47.86;52236.13;5123187;27;20577;-65
2021/07/29 12:26:35;;;;;;;;;;;;;;;-144.99;48.19;52297.25;5123843;27;19938;-65
2021/07/29 12:29:03;;;;;;;;;;;;;;;-144.99;48.33;52272.81;5117332;28;19968;-64